メインページ
METAR-TAF:

METAR-TAF

空港 :

バマコ, マリ共和国

バマコ・セヌー国際空港

緯度: 12-32N, 経度: 007-57W, 海抜: 380m

現時点の気象観測

当レポートは18分前の09:30(UTC)に作成
西/南西の風 9kt
気温 30°C
湿度 46%
気圧 1015 hPa
視程10km以上
1,500メートル以下は雲なし、積乱雲なし

METAR: GABS 250930Z 25009KT CAVOK 30/17 Q1015 NOSIG

時間: 09:48 (09:48 UTC)

予報

当レポートは10時間48分前の23:00(UTC)に作成
予報は25日の 00時(UTC)から 26日の 06時(UTC)まで有効
の風 10kt
視程10km以上
1,500メートル以下は雲なし、積乱雲なし
確率 40% :
25日の 00時(UTC)から 25日の 08時(UTC)まで一時的に
変向風 15kt、最大25ktの突風を伴う
視程: 4500m
高度3300ftの雲は散在している
高度4000ftの雲はほとんどない, 積乱雲.
激しい雷雨, にわか雨
確率 40% :
25日の 15時(UTC)から 25日の 23時(UTC)まで一時的に
変向風 15kt、最大25ktの突風を伴う
視程: 4000m
高度3300ftの雲は散在している
高度4000ftの雲はほとんどない, 積乱雲.
激しい雷雨, 雨
25日の 20時(UTC)から 25日の 22時(UTC)まで徐々に
西の風 10kt

TAF: GABS 242300Z 2500/2606 18010KT CAVOK PROB40 TEMPO 2500/2508 VRB15G25KT 4500 TS SHRA SCT033 FEW040CB PROB40 TEMPO 2515/2523 VRB15G25KT 4000 TSRA SCT033 FEW040CB BECMG 2520/2522 28010KT

4,000以上の空港の気象観測と天気予報(METAR報とTAF報)

利用可能な観測所は地図上に黄色い丸と赤い丸で示す。

丸の上にカーソルを重ねると観測所名を参照できる。

次にクリックすると気象観測と天気予報を参照できる。

マップの切り替え:黒色「×」印の緑ボタンをクリックして拡大、「-」印の緑ボタンをクリックして縮小、緑色の三角印をクリックして隣りの地図に切り替え


METAR-TAF: